Time;durP1;ratioP1;P1;durP2;ratioP2;P2;SDS_P1;SDS_P2;PMS_P1;PMS_P2;Temp;Humidity;BMP_temperature;BMP_pressure;BME280_temperature;BME280_humidity;BME280_pressure;Samples;Min_cycle;Max_cycle;Signal;HPM_P1;HPM_P2
2022/11/22 00:02:15;;;;;;;;;;;3.20;99.90;;;;;;5043908;28;19929;-66
2022/11/22 00:04:40;;;;;;;;;;;3.20;99.90;;;;;;5050210;28;19931;-66
2022/11/22 00:07:06;;;;;;;;;;;3.10;99.90;;;;;;5044464;28;20599;-67
2022/11/22 00:09:31;;;;;;;;;;;3.10;99.90;;;;;;5051257;28;19925;-67
2022/11/22 00:11:57;;;;;;;;;;;3.10;99.90;;;;;;5049715;28;19948;-67
2022/11/22 00:14:22;;;;;;;;;;;3.20;99.90;;;;;;5047576;28;20526;-67
2022/11/22 00:16:48;;;;;;;;;;;3.20;99.90;;;;;;5045624;28;19928;-67
2022/11/22 00:19:13;;;;;;;;;;;3.20;99.90;;;;;;5046580;28;19972;-67
2022/11/22 00:21:38;;;;;;;;;;;3.20;99.90;;;;;;5050317;28;19936;-67
2022/11/22 00:24:04;;;;;;;;;;;3.20;99.90;;;;;;5050905;28;19974;-67
2022/11/22 00:26:30;;;;;;;;;;;3.20;99.90;;;;;;5050400;28;19932;-67
2022/11/22 00:28:55;;;;;;;;;;;3.20;99.90;;;;;;5050892;28;19925;-67
2022/11/22 00:31:21;;;;;;;;;;;3.20;99.90;;;;;;5042578;28;19924;-67
2022/11/22 00:33:46;;;;;;;;;;;3.20;99.90;;;;;;5046727;28;19921;-67
2022/11/22 00:36:11;;;;;;;;;;;3.30;99.90;;;;;;5051300;28;19921;-67
2022/11/22 00:38:37;;;;;;;;;;;3.30;99.90;;;;;;5047925;28;19925;-67
2022/11/22 00:41:03;;;;;;;;;;;3.30;99.90;;;;;;5050813;28;19921;-67
2022/11/22 00:43:28;;;;;;;;;;;3.20;99.90;;;;;;5050634;28;19920;-67
2022/11/22 00:45:54;;;;;;;;;;;3.20;99.90;;;;;;5049333;28;19937;-67
2022/11/22 00:48:19;;;;;;;;;;;3.20;99.90;;;;;;5048696;28;20030;-67
2022/11/22 00:50:47;;;;;;;;;;;3.20;99.90;;;;;;5047771;28;20322;-67
2022/11/22 00:53:12;;;;;;;;;;;3.20;99.90;;;;;;5051591;28;19928;-67
2022/11/22 00:55:38;;;;;;;;;;;3.20;99.90;;;;;;5047971;28;19947;-67
2022/11/22 00:58:03;;;;;;;;;;;3.20;99.90;;;;;;5045465;28;19974;-67
2022/11/22 01:00:29;;;;;;;;;;;3.20;99.90;;;;;;5048370;28;20274;-67
2022/11/22 01:02:54;;;;;;;;;;;3.10;99.90;;;;;;5045459;28;19921;-67
2022/11/22 01:05:20;;;;;;;;;;;3.10;99.90;;;;;;5047894;28;19921;-67
2022/11/22 01:07:45;;;;;;;;;;;3.10;99.90;;;;;;5045345;28;20381;-67
2022/11/22 01:10:11;;;;;;;;;;;3.10;99.90;;;;;;5042211;28;19921;-67
2022/11/22 01:12:36;;;;;;;;;;;3.10;99.90;;;;;;5046891;28;19921;-67
2022/11/22 01:15:02;;;;;;;;;;;3.10;99.90;;;;;;5050091;28;19924;-67
2022/11/22 01:17:28;;;;;;;;;;;3.20;99.90;;;;;;5050864;28;19978;-67
2022/11/22 01:19:53;;;;;;;;;;;3.20;99.90;;;;;;5048620;28;19921;-66
2022/11/22 01:22:19;;;;;;;;;;;3.20;99.90;;;;;;5049106;28;19924;-67
2022/11/22 01:24:44;;;;;;;;;;;3.20;99.90;;;;;;5046963;28;19960;-67
2022/11/22 01:27:10;;;;;;;;;;;3.30;99.90;;;;;;5043458;28;19920;-67
2022/11/22 01:29:35;;;;;;;;;;;3.20;99.90;;;;;;5050265;28;19920;-67
2022/11/22 01:32:01;;;;;;;;;;;3.30;99.90;;;;;;5049241;28;20018;-67
2022/11/22 01:34:26;;;;;;;;;;;3.20;99.90;;;;;;5050743;28;19932;-67
2022/11/22 01:36:52;;;;;;;;;;;3.20;99.90;;;;;;5049468;28;19928;-67
2022/11/22 01:39:17;;;;;;;;;;;3.20;99.90;;;;;;5045871;28;19925;-67
2022/11/22 01:41:43;;;;;;;;;;;3.30;99.90;;;;;;5050651;28;19921;-67
2022/11/22 01:44:18;;;;;;;;;;;3.30;99.90;;;;;;5049595;28;19928;-67
2022/11/22 01:46:43;;;;;;;;;;;3.20;99.90;;;;;;5049941;28;19920;-67
2022/11/22 01:49:15;;;;;;;;;;;3.30;99.90;;;;;;5049866;28;19978;-67
2022/11/22 01:51:42;;;;;;;;;;;3.20;99.90;;;;;;5049370;28;19935;-67
2022/11/22 01:54:13;;;;;;;;;;;3.20;99.90;;;;;;5043507;28;19920;-67
2022/11/22 01:56:40;;;;;;;;;;;3.20;99.90;;;;;;5046530;28;19925;-67
2022/11/22 01:59:08;;;;;;;;;;;3.30;99.90;;;;;;5030776;28;20012;-67
2022/11/22 02:01:34;;;;;;;;;;;3.30;99.90;;;;;;5046537;28;20397;-67
2022/11/22 02:04:01;;;;;;;;;;;3.20;99.90;;;;;;5030238;28;19928;-67
2022/11/22 02:06:35;;;;;;;;;;;3.30;99.90;;;;;;5031429;28;20012;-67
2022/11/22 02:09:11;;;;;;;;;;;3.30;99.90;;;;;;5045746;28;20297;-67
2022/11/22 02:11:39;;;;;;;;;;;3.30;99.90;;;;;;5045860;28;19929;-67
2022/11/22 02:14:06;;;;;;;;;;;3.30;99.90;;;;;;5047097;28;19990;-68
2022/11/22 02:16:33;;;;;;;;;;;3.30;99.90;;;;;;5046943;28;20028;-68
2022/11/22 02:18:59;;;;;;;;;;;3.30;99.90;;;;;;5048844;28;20491;-68
2022/11/22 02:21:25;;;;;;;;;;;3.30;99.90;;;;;;5048914;28;19925;-68
2022/11/22 02:24:06;;;;;;;;;;;3.30;99.90;;;;;;5047602;28;19931;-68
2022/11/22 02:26:31;;;;;;;;;;;3.30;99.90;;;;;;5053406;28;19929;-68
2022/11/22 02:29:02;;;;;;;;;;;3.40;99.90;;;;;;5051051;28;19928;-68
2022/11/22 02:31:36;;;;;;;;;;;3.50;99.90;;;;;;5054459;28;19921;-69
2022/11/22 02:34:01;;;;;;;;;;;3.40;99.90;;;;;;5051485;28;20066;-68
2022/11/22 02:36:27;;;;;;;;;;;3.40;99.90;;;;;;5052258;28;19925;-68
2022/11/22 02:38:52;;;;;;;;;;;3.40;99.90;;;;;;5048496;28;20012;-68
2022/11/22 02:41:18;;;;;;;;;;;3.40;99.90;;;;;;5052090;28;20657;-68
2022/11/22 02:43:45;;;;;;;;;;;3.40;99.90;;;;;;5051641;28;19921;-69
2022/11/22 02:46:14;;;;;;;;;;;3.40;99.90;;;;;;5049478;28;19975;-68
2022/11/22 02:48:40;;;;;;;;;;;3.50;99.90;;;;;;5052091;28;20401;-68
2022/11/22 02:51:05;;;;;;;;;;;3.40;99.90;;;;;;5034570;28;19921;-68
2022/11/22 02:53:31;;;;;;;;;;;3.40;99.90;;;;;;5052825;28;19924;-68
2022/11/22 02:55:56;;;;;;;;;;;3.40;99.90;;;;;;5036959;28;19925;-68
2022/11/22 02:58:22;;;;;;;;;;;3.40;99.90;;;;;;5051189;28;19950;-68
2022/11/22 03:00:47;;;;;;;;;;;3.50;99.90;;;;;;5051322;28;19943;-68
2022/11/22 03:03:13;;;;;;;;;;;3.60;99.90;;;;;;5050680;28;20042;-68
2022/11/22 03:05:38;;;;;;;;;;;3.50;99.90;;;;;;5052761;28;19920;-68
2022/11/22 03:08:04;;;;;;;;;;;3.60;99.90;;;;;;5050574;28;19966;-68
2022/11/22 03:10:29;;;;;;;;;;;3.50;99.90;;;;;;5052015;28;19924;-66
2022/11/22 03:12:56;;;;;;;;;;;3.50;99.90;;;;;;5052792;28;19921;-67
2022/11/22 03:15:21;;;;;;;;;;;3.60;99.90;;;;;;5053195;28;20377;-67
2022/11/22 03:17:46;;;;;;;;;;;3.50;99.90;;;;;;5048797;28;19925;-67
2022/11/22 03:20:12;;;;;;;;;;;3.60;99.90;;;;;;5054390;28;20263;-67
2022/11/22 03:22:38;;;;;;;;;;;3.60;99.90;;;;;;5051547;28;19971;-67
2022/11/22 03:25:03;;;;;;;;;;;3.60;99.90;;;;;;5052329;28;19925;-67
2022/11/22 03:27:29;;;;;;;;;;;3.60;99.90;;;;;;5048981;28;19924;-67
2022/11/22 03:29:54;;;;;;;;;;;3.60;99.90;;;;;;5053387;28;19931;-67
2022/11/22 03:32:20;;;;;;;;;;;3.60;99.90;;;;;;5052861;28;19979;-67
2022/11/22 03:34:45;;;;;;;;;;;3.60;99.90;;;;;;5051945;28;19924;-67
2022/11/22 03:37:11;;;;;;;;;;;3.60;99.90;;;;;;5050000;28;19924;-67
2022/11/22 03:39:36;;;;;;;;;;;3.60;99.90;;;;;;5049909;28;19920;-67
2022/11/22 03:42:02;;;;;;;;;;;3.60;99.90;;;;;;5049855;28;19925;-67
2022/11/22 03:44:27;;;;;;;;;;;3.60;99.90;;;;;;5047391;28;19959;-67
2022/11/22 03:46:52;;;;;;;;;;;3.60;99.90;;;;;;5052664;28;19964;-67
2022/11/22 03:49:18;;;;;;;;;;;3.60;99.90;;;;;;5048692;28;19928;-67
2022/11/22 03:51:43;;;;;;;;;;;3.70;99.90;;;;;;5050988;28;19932;-67
2022/11/22 03:54:09;;;;;;;;;;;3.60;99.90;;;;;;5051443;28;19983;-67
2022/11/22 03:56:34;;;;;;;;;;;3.60;99.90;;;;;;5051949;28;19928;-68
2022/11/22 03:59:00;;;;;;;;;;;3.70;99.90;;;;;;5051927;28;19924;-67
2022/11/22 04:01:25;;;;;;;;;;;3.70;99.90;;;;;;5050719;28;20016;-68
2022/11/22 04:03:51;;;;;;;;;;;3.70;99.90;;;;;;5051850;28;19921;-67
2022/11/22 04:06:16;;;;;;;;;;;3.70;99.90;;;;;;5049346;28;20329;-67
2022/11/22 04:08:42;;;;;;;;;;;3.70;99.90;;;;;;5050317;28;19924;-67
2022/11/22 04:11:07;;;;;;;;;;;3.70;99.90;;;;;;5051052;28;20277;-67
2022/11/22 04:16:17;;;;;;;;;;;3.80;99.90;;;;;;5051668;28;20028;-67
2022/11/22 04:18:43;;;;;;;;;;;3.80;99.90;;;;;;5039015;28;20015;-68
2022/11/22 04:26:37;;;;;;;;;;;3.70;99.90;;;;;;5048875;28;19928;-68
2022/11/22 04:29:02;;;;;;;;;;;3.70;99.90;;;;;;5052420;28;20412;-67
2022/11/22 04:34:12;;;;;;;;;;;3.70;99.90;;;;;;5051489;28;20452;-67
2022/11/22 04:36:38;;;;;;;;;;;3.70;99.90;;;;;;5050729;28;19924;-67
2022/11/22 04:39:03;;;;;;;;;;;3.70;99.90;;;;;;5048053;28;20010;-68
2022/11/22 04:41:28;;;;;;;;;;;3.80;99.90;;;;;;5049687;28;19936;-68
2022/11/22 04:46:38;;;;;;;;;;;3.80;99.90;;;;;;5050784;28;19925;-68
2022/11/22 04:49:03;;;;;;;;;;;3.80;99.90;;;;;;5051442;28;19920;-68
2022/11/22 04:54:32;;;;;;;;;;;3.80;99.90;;;;;;4988308;28;19926;-68
2022/11/22 04:56:58;;;;;;;;;;;3.90;99.90;;;;;;4990261;28;19930;-68
2022/11/22 04:59:23;;;;;;;;;;;3.90;99.90;;;;;;5017284;28;19964;-68
2022/11/22 05:01:51;;;;;;;;;;;4.00;99.90;;;;;;5050123;28;19924;-68
2022/11/22 05:04:16;;;;;;;;;;;3.90;99.90;;;;;;5050425;28;20423;-68
2022/11/22 05:06:41;;;;;;;;;;;4.00;99.90;;;;;;5048315;28;19921;-68
2022/11/22 05:09:07;;;;;;;;;;;4.00;99.90;;;;;;5050036;28;20556;-68
2022/11/22 05:11:33;;;;;;;;;;;4.00;99.90;;;;;;5049849;28;19924;-66
2022/11/22 05:13:59;;;;;;;;;;;4.00;99.90;;;;;;5050125;28;20397;-67
2022/11/22 05:16:24;;;;;;;;;;;4.10;99.90;;;;;;5050924;28;19925;-66
2022/11/22 05:18:59;;;;;;;;;;;4.00;99.90;;;;;;5050791;28;19929;-67
2022/11/22 05:21:26;;;;;;;;;;;4.00;99.90;;;;;;5051600;28;19924;-66
2022/11/22 05:23:54;;;;;;;;;;;4.10;99.90;;;;;;5049155;28;19924;-66
2022/11/22 05:26:22;;;;;;;;;;;4.10;99.90;;;;;;5048183;28;20329;-67
2022/11/22 05:28:48;;;;;;;;;;;4.10;99.90;;;;;;5049656;28;20015;-66
2022/11/22 05:31:15;;;;;;;;;;;4.10;99.90;;;;;;5051408;28;20019;-66
2022/11/22 05:33:42;;;;;;;;;;;4.10;99.90;;;;;;5048187;28;19928;-66
2022/11/22 05:36:07;;;;;;;;;;;4.10;99.90;;;;;;5049265;28;19932;-66
2022/11/22 05:38:34;;;;;;;;;;;4.20;99.90;;;;;;5049416;28;19925;-66
2022/11/22 05:41:01;;;;;;;;;;;4.20;99.90;;;;;;5046963;28;19929;-66
2022/11/22 05:43:27;;;;;;;;;;;4.20;99.90;;;;;;5048762;28;20015;-66
2022/11/22 05:45:52;;;;;;;;;;;4.20;99.90;;;;;;5049913;28;20000;-66
2022/11/22 05:48:18;;;;;;;;;;;4.30;99.90;;;;;;5050116;28;19925;-66
2022/11/22 05:50:43;;;;;;;;;;;4.30;99.90;;;;;;5051721;28;20661;-66
2022/11/22 05:53:08;;;;;;;;;;;4.30;99.90;;;;;;5046677;28;19928;-66
2022/11/22 05:55:34;;;;;;;;;;;4.30;99.90;;;;;;5041820;28;19925;-67
2022/11/22 05:58:00;;;;;;;;;;;4.30;99.90;;;;;;5048557;28;20368;-67
2022/11/22 06:00:26;;;;;;;;;;;4.30;99.90;;;;;;5047334;28;20011;-67
2022/11/22 06:02:51;;;;;;;;;;;4.40;99.90;;;;;;5048926;28;19955;-67
2022/11/22 06:05:17;;;;;;;;;;;4.40;99.90;;;;;;5046439;28;19967;-66
2022/11/22 06:07:42;;;;;;;;;;;4.40;99.90;;;;;;5046787;28;19924;-66
2022/11/22 06:10:08;;;;;;;;;;;4.40;99.90;;;;;;5049330;28;19925;-66
2022/11/22 06:12:34;;;;;;;;;;;4.40;99.90;;;;;;5049040;28;19929;-66
2022/11/22 06:14:59;;;;;;;;;;;4.40;99.90;;;;;;5048015;28;19925;-67
2022/11/22 06:17:24;;;;;;;;;;;4.40;99.90;;;;;;5050530;28;20012;-67
2022/11/22 06:19:50;;;;;;;;;;;4.40;99.90;;;;;;5049489;28;19967;-67
2022/11/22 06:22:15;;;;;;;;;;;4.50;99.90;;;;;;5048420;28;20398;-66
2022/11/22 06:24:41;;;;;;;;;;;4.50;99.90;;;;;;5046328;28;19925;-66
2022/11/22 06:27:07;;;;;;;;;;;4.50;99.90;;;;;;5046759;28;19927;-67
2022/11/22 06:29:33;;;;;;;;;;;4.50;99.90;;;;;;5048581;28;19929;-67
2022/11/22 06:31:58;;;;;;;;;;;4.50;99.90;;;;;;5045424;28;20481;-67
2022/11/22 06:34:24;;;;;;;;;;;4.50;99.90;;;;;;5050615;28;19967;-67
2022/11/22 06:36:50;;;;;;;;;;;4.50;99.90;;;;;;5047382;28;20281;-67
2022/11/22 06:39:15;;;;;;;;;;;4.50;99.90;;;;;;5049391;28;19944;-67
2022/11/22 06:41:40;;;;;;;;;;;4.50;99.90;;;;;;5048224;28;20294;-67
2022/11/22 06:44:07;;;;;;;;;;;4.50;99.90;;;;;;5049255;28;19924;-67
2022/11/22 06:46:33;;;;;;;;;;;4.50;99.90;;;;;;5045871;28;19970;-67
2022/11/22 06:48:58;;;;;;;;;;;4.50;99.90;;;;;;5049529;28;19959;-67
2022/11/22 06:51:27;;;;;;;;;;;4.50;99.90;;;;;;5048039;28;19927;-67
2022/11/22 06:53:55;;;;;;;;;;;4.50;99.90;;;;;;5038078;28;19921;-67
2022/11/22 06:56:23;;;;;;;;;;;4.60;99.90;;;;;;5050293;28;20004;-67
2022/11/22 06:58:49;;;;;;;;;;;4.50;99.90;;;;;;5048960;28;19928;-67
2022/11/22 07:01:17;;;;;;;;;;;4.50;99.90;;;;;;5045500;28;19928;-67
2022/11/22 07:03:42;;;;;;;;;;;4.60;99.90;;;;;;5048731;28;19920;-66
2022/11/22 07:06:09;;;;;;;;;;;4.60;99.90;;;;;;5048385;28;20413;-67
2022/11/22 07:08:35;;;;;;;;;;;4.60;99.90;;;;;;5047425;28;20351;-67
2022/11/22 07:11:10;;;;;;;;;;;4.60;99.90;;;;;;5052571;28;19974;-67
2022/11/22 07:13:36;;;;;;;;;;;4.70;99.90;;;;;;5054901;28;20382;-67
2022/11/22 07:16:02;;;;;;;;;;;4.70;99.90;;;;;;5051074;28;19929;-67
2022/11/22 07:18:28;;;;;;;;;;;4.70;99.90;;;;;;5041335;28;19932;-67
2022/11/22 07:21:04;;;;;;;;;;;4.70;99.90;;;;;;5043070;28;20306;-67
2022/11/22 07:23:30;;;;;;;;;;;4.70;99.90;;;;;;5046157;28;20286;-67
2022/11/22 07:25:56;;;;;;;;;;;4.80;99.90;;;;;;5051352;28;19951;-67
2022/11/22 07:28:21;;;;;;;;;;;4.80;99.90;;;;;;5054299;28;19921;-67
2022/11/22 07:30:47;;;;;;;;;;;4.80;99.90;;;;;;5053122;28;19947;-67
2022/11/22 07:33:12;;;;;;;;;;;4.80;99.90;;;;;;5052761;28;19974;-67
2022/11/22 07:35:38;;;;;;;;;;;4.90;99.90;;;;;;5054034;28;19921;-67
2022/11/22 07:38:03;;;;;;;;;;;4.90;99.90;;;;;;5051626;28;19928;-67
2022/11/22 07:40:29;;;;;;;;;;;5.00;99.90;;;;;;5050973;28;20509;-67
2022/11/22 07:42:54;;;;;;;;;;;5.00;99.90;;;;;;5052989;28;19955;-67
2022/11/22 07:45:20;;;;;;;;;;;5.10;99.90;;;;;;5053468;28;19921;-67
2022/11/22 07:47:45;;;;;;;;;;;5.10;99.90;;;;;;5052546;28;19931;-67
2022/11/22 07:50:10;;;;;;;;;;;5.20;99.90;;;;;;5051060;28;19925;-67
2022/11/22 07:52:36;;;;;;;;;;;5.20;99.90;;;;;;5051304;28;19964;-67
2022/11/22 07:55:02;;;;;;;;;;;5.20;99.90;;;;;;5053812;28;19935;-67
2022/11/22 07:57:27;;;;;;;;;;;5.30;99.90;;;;;;5032551;28;20007;-67
2022/11/22 07:59:53;;;;;;;;;;;5.40;99.90;;;;;;5050543;28;20004;-67
2022/11/22 08:02:18;;;;;;;;;;;5.40;99.90;;;;;;5043340;28;19975;-67
2022/11/22 08:04:44;;;;;;;;;;;5.40;99.90;;;;;;5049557;28;20032;-67
2022/11/22 08:07:09;;;;;;;;;;;5.50;99.90;;;;;;5052914;28;19924;-67
2022/11/22 08:09:35;;;;;;;;;;;5.50;99.90;;;;;;5051585;28;19955;-67
2022/11/22 08:12:00;;;;;;;;;;;5.60;99.90;;;;;;5051857;28;20437;-67
2022/11/22 08:14:26;;;;;;;;;;;5.60;99.90;;;;;;5051469;28;19959;-67
2022/11/22 08:16:52;;;;;;;;;;;5.60;99.90;;;;;;5050777;28;20011;-67
2022/11/22 08:19:18;;;;;;;;;;;5.60;99.90;;;;;;5052426;28;19920;-67
2022/11/22 08:21:44;;;;;;;;;;;5.70;99.90;;;;;;5048867;28;19921;-67
2022/11/22 08:24:10;;;;;;;;;;;5.70;99.90;;;;;;5051925;28;20488;-67
2022/11/22 08:26:35;;;;;;;;;;;5.70;99.90;;;;;;5053620;28;19925;-67
2022/11/22 08:29:04;;;;;;;;;;;5.70;99.90;;;;;;5049353;28;20015;-67
2022/11/22 08:31:30;;;;;;;;;;;5.80;99.90;;;;;;5051315;28;20364;-67
2022/11/22 08:33:56;;;;;;;;;;;5.80;99.90;;;;;;5053157;28;19924;-67
2022/11/22 08:36:21;;;;;;;;;;;5.80;99.90;;;;;;5051495;28;19971;-67
2022/11/22 08:38:47;;;;;;;;;;;5.80;99.90;;;;;;5052858;28;19932;-67
2022/11/22 08:41:12;;;;;;;;;;;5.80;99.90;;;;;;5046435;28;19925;-67
2022/11/22 08:43:38;;;;;;;;;;;5.80;99.90;;;;;;5050941;28;19921;-67
2022/11/22 08:46:03;;;;;;;;;;;5.90;99.90;;;;;;5049536;28;19924;-67
2022/11/22 08:48:30;;;;;;;;;;;5.80;99.90;;;;;;5048962;28;19932;-67
2022/11/22 08:50:57;;;;;;;;;;;5.80;99.90;;;;;;5050567;28;20404;-67
2022/11/22 08:53:22;;;;;;;;;;;5.80;99.90;;;;;;5052650;28;20381;-67
2022/11/22 08:55:48;;;;;;;;;;;5.90;99.90;;;;;;5046848;28;19925;-67
2022/11/22 08:58:13;;;;;;;;;;;5.90;99.90;;;;;;5049484;28;19951;-67
2022/11/22 09:00:39;;;;;;;;;;;5.90;99.90;;;;;;5050963;28;19951;-67
2022/11/22 09:03:04;;;;;;;;;;;6.00;99.90;;;;;;5049607;28;19925;-67
2022/11/22 09:05:30;;;;;;;;;;;6.00;99.90;;;;;;5050468;28;20290;-67
2022/11/22 09:07:56;;;;;;;;;;;6.00;99.90;;;;;;5047541;28;20028;-67
2022/11/22 09:10:21;;;;;;;;;;;6.10;99.90;;;;;;5062776;28;19920;-67
2022/11/22 09:12:47;;;;;;;;;;;6.20;99.90;;;;;;5050548;28;19931;-67
2022/11/22 09:15:13;;;;;;;;;;;6.20;99.90;;;;;;5048896;28;19929;-67
2022/11/22 09:17:38;;;;;;;;;;;6.30;99.90;;;;;;5049135;28;20394;-67
2022/11/22 09:20:04;;;;;;;;;;;6.30;99.90;;;;;;5049811;28;19931;-67
2022/11/22 09:22:30;;;;;;;;;;;6.30;99.90;;;;;;5050055;28;20417;-67
2022/11/22 09:24:56;;;;;;;;;;;6.30;99.90;;;;;;5048971;28;19925;-67
2022/11/22 09:27:22;;;;;;;;;;;6.40;99.90;;;;;;5050755;28;19924;-67
2022/11/22 09:29:47;;;;;;;;;;;6.40;99.90;;;;;;5041953;28;19925;-67
2022/11/22 09:32:13;;;;;;;;;;;6.50;99.90;;;;;;5035500;28;19959;-67
2022/11/22 09:34:38;;;;;;;;;;;6.50;99.90;;;;;;5050761;28;19921;-67
2022/11/22 09:37:04;;;;;;;;;;;6.60;99.90;;;;;;5071702;22;19925;-67
2022/11/22 09:39:29;;;;;;;;;;;6.70;99.90;;;;;;5068058;28;19947;-69
2022/11/22 09:41:55;;;;;;;;;;;6.60;99.90;;;;;;5061966;28;19928;-68
2022/11/22 09:44:39;;;;;;;;;;;6.60;99.90;;;;;;5066324;28;19924;-68
2022/11/22 09:47:05;;;;;;;;;;;6.70;99.90;;;;;;5061459;28;20006;-69
2022/11/22 09:49:33;;;;;;;;;;;6.70;99.90;;;;;;5068547;28;20003;-68
2022/11/22 09:51:59;;;;;;;;;;;6.70;99.90;;;;;;5064061;28;19920;-68
2022/11/22 09:54:32;;;;;;;;;;;6.70;99.90;;;;;;5065475;28;20580;-69
2022/11/22 09:57:00;;;;;;;;;;;6.90;99.90;;;;;;5061831;28;19982;-68
2022/11/22 09:59:31;;;;;;;;;;;6.90;99.90;;;;;;5064923;28;19924;-68
2022/11/22 10:02:03;;;;;;;;;;;6.90;99.90;;;;;;5062375;28;19920;-69
2022/11/22 10:04:48;;;;;;;;;;;7.00;99.90;;;;;;5065193;28;19939;-69
2022/11/22 10:07:16;;;;;;;;;;;7.00;99.90;;;;;;5064892;28;19974;-68
2022/11/22 10:09:41;;;;;;;;;;;7.00;99.90;;;;;;5070882;28;19921;-68
2022/11/22 10:12:19;;;;;;;;;;;7.10;99.90;;;;;;5068439;28;19924;-69
2022/11/22 10:15:04;;;;;;;;;;;7.10;99.90;;;;;;5068899;28;20384;-68
2022/11/22 10:17:40;;;;;;;;;;;7.10;99.90;;;;;;5068596;28;19924;-68
2022/11/22 10:20:16;;;;;;;;;;;7.20;99.90;;;;;;5068690;28;19920;-69
2022/11/22 10:22:42;;;;;;;;;;;7.20;99.90;;;;;;5067350;28;20070;-68
2022/11/22 10:25:13;;;;;;;;;;;7.20;99.90;;;;;;5065497;28;20433;-68
2022/11/22 10:27:40;;;;;;;;;;;7.20;99.90;;;;;;5089786;28;20367;-68
2022/11/22 10:30:12;;;;;;;;;;;7.20;99.90;;;;;;5063092;28;19966;-68
2022/11/22 10:32:56;;;;;;;;;;;7.20;99.90;;;;;;5063366;28;19952;-68
2022/11/22 10:35:25;;;;;;;;;;;7.20;99.90;;;;;;5069797;28;20389;-68
2022/11/22 10:37:56;;;;;;;;;;;7.20;99.90;;;;;;5064406;28;19935;-68
2022/11/22 10:40:26;;;;;;;;;;;7.20;99.90;;;;;;5059372;28;19927;-69
2022/11/22 10:42:59;;;;;;;;;;;7.30;99.90;;;;;;5066689;28;19928;-69
2022/11/22 10:45:33;;;;;;;;;;;7.30;99.90;;;;;;5068251;28;20436;-69
2022/11/22 10:48:13;;;;;;;;;;;7.50;99.90;;;;;;5073068;28;19927;-69
2022/11/22 10:50:58;;;;;;;;;;;7.50;99.90;;;;;;5072794;28;19931;-69
2022/11/22 10:53:37;;;;;;;;;;;7.60;99.90;;;;;;5073553;28;19955;-69
2022/11/22 10:56:21;;;;;;;;;;;7.60;99.90;;;;;;5073002;28;20374;-68
2022/11/22 10:58:53;;;;;;;;;;;7.60;99.90;;;;;;5071490;28;19952;-68
2022/11/22 11:01:21;;;;;;;;;;;7.60;99.90;;;;;;5068467;28;19924;-68
2022/11/22 11:03:49;;;;;;;;;;;7.70;99.90;;;;;;5053950;28;19924;-67
2022/11/22 11:06:27;;;;;;;;;;;7.70;99.90;;;;;;5073473;28;19931;-68
2022/11/22 11:08:58;;;;;;;;;;;7.70;99.90;;;;;;5067878;28;19955;-69
2022/11/22 11:11:24;;;;;;;;;;;7.70;99.90;;;;;;5068049;28;20023;-68
2022/11/22 11:13:53;;;;;;;;;;;7.70;99.90;;;;;;5071603;28;19924;-68
2022/11/22 11:16:20;;;;;;;;;;;7.70;99.90;;;;;;5070995;28;19929;-69
2022/11/22 11:18:49;;;;;;;;;;;7.70;99.90;;;;;;5073869;28;19920;-68
2022/11/22 11:21:14;;;;;;;;;;;7.70;99.90;;;;;;5072568;28;20001;-68
2022/11/22 11:23:40;;;;;;;;;;;7.80;99.90;;;;;;5074628;28;20312;-67
2022/11/22 11:26:15;;;;;;;;;;;7.80;99.90;;;;;;5071825;28;20007;-68
2022/11/22 11:28:40;;;;;;;;;;;7.80;99.90;;;;;;5073290;28;20472;-68
2022/11/22 11:31:07;;;;;;;;;;;7.90;99.90;;;;;;5073263;28;20003;-69
2022/11/22 11:33:34;;;;;;;;;;;7.90;99.90;;;;;;5074487;28;19921;-68
2022/11/22 11:36:09;;;;;;;;;;;7.90;99.90;;;;;;5065255;28;19928;-67
2022/11/22 11:38:34;;;;;;;;;;;7.80;99.90;;;;;;5073780;28;20358;-67
2022/11/22 11:41:17;;;;;;;;;;;7.80;99.90;;;;;;5071283;28;19935;-68
2022/11/22 11:43:43;;;;;;;;;;;7.70;99.90;;;;;;5069162;28;20335;-68
2022/11/22 11:46:15;;;;;;;;;;;7.70;99.90;;;;;;5074135;28;20270;-68
2022/11/22 11:48:42;;;;;;;;;;;7.60;99.90;;;;;;5072971;28;19978;-68
2022/11/22 11:51:13;;;;;;;;;;;7.70;99.90;;;;;;5072603;28;19966;-68
2022/11/22 11:53:39;;;;;;;;;;;7.70;99.90;;;;;;5068270;28;20008;-68
2022/11/22 11:56:24;;;;;;;;;;;7.70;99.90;;;;;;5067637;28;20047;-68
2022/11/22 11:58:50;;;;;;;;;;;7.70;99.90;;;;;;5069393;28;20006;-68
2022/11/22 12:01:19;;;;;;;;;;;7.80;99.90;;;;;;5073018;28;19920;-68
2022/11/22 12:04:00;;;;;;;;;;;7.80;99.90;;;;;;5073064;28;19931;-68
2022/11/22 12:06:29;;;;;;;;;;;7.80;99.90;;;;;;5062787;28;20369;-68
2022/11/22 12:08:56;;;;;;;;;;;7.90;99.90;;;;;;5069394;28;20051;-68
2022/11/22 12:11:32;;;;;;;;;;;7.90;99.90;;;;;;5070527;28;19932;-67
2022/11/22 12:14:00;;;;;;;;;;;7.90;99.90;;;;;;5070235;28;19971;-68
2022/11/22 12:16:40;;;;;;;;;;;7.90;99.90;;;;;;5066502;28;19925;-67
2022/11/22 12:19:24;;;;;;;;;;;7.90;99.90;;;;;;5066967;28;20281;-68
2022/11/22 12:21:49;;;;;;;;;;;8.00;99.90;;;;;;5069220;28;19935;-68
2022/11/22 12:24:21;;;;;;;;;;;8.00;99.90;;;;;;5068246;28;19947;-69
2022/11/22 12:26:46;;;;;;;;;;;8.00;99.90;;;;;;5064958;28;20305;-67
2022/11/22 12:29:13;;;;;;;;;;;8.10;99.90;;;;;;5067396;28;19925;-68
2022/11/22 12:31:45;;;;;;;;;;;8.10;99.90;;;;;;5070259;28;19995;-68
2022/11/22 12:34:21;;;;;;;;;;;8.10;99.90;;;;;;5071665;28;19924;-68
2022/11/22 12:36:58;;;;;;;;;;;8.10;99.90;;;;;;5067043;28;19939;-70
2022/11/22 12:39:27;;;;;;;;;;;8.10;99.90;;;;;;5009673;28;19983;-68
2022/11/22 12:41:59;;;;;;;;;;;8.10;99.90;;;;;;5030337;28;19971;-68
2022/11/22 12:44:24;;;;;;;;;;;8.10;99.90;;;;;;5026800;28;19927;-67
2022/11/22 12:46:53;;;;;;;;;;;8.10;99.90;;;;;;5021568;28;20007;-68
2022/11/22 12:49:31;;;;;;;;;;;8.20;99.90;;;;;;5027609;28;19934;-68
2022/11/22 12:52:03;;;;;;;;;;;8.20;99.90;;;;;;5028120;28;19921;-67
2022/11/22 12:54:31;;;;;;;;;;;8.20;99.90;;;;;;5002040;28;19952;-68
2022/11/22 12:57:19;;;;;;;;;;;8.20;99.90;;;;;;5022953;28;19932;-68
2022/11/22 13:00:01;;;;;;;;;;;8.20;99.90;;;;;;5026867;28;19940;-68
2022/11/22 13:02:35;;;;;;;;;;;8.20;99.90;;;;;;5031169;28;19921;-68
2022/11/22 13:05:01;;;;;;;;;;;8.10;99.90;;;;;;5021910;28;20371;-68
2022/11/22 13:07:35;;;;;;;;;;;8.10;99.90;;;;;;5030665;28;20076;-68
2022/11/22 13:10:04;;;;;;;;;;;8.10;99.90;;;;;;5021239;28;19921;-67
2022/11/22 13:12:34;;;;;;;;;;;8.10;99.90;;;;;;5026592;28;19928;-68
2022/11/22 13:15:01;;;;;;;;;;;8.10;99.90;;;;;;5027151;28;19925;-68
2022/11/22 13:17:31;;;;;;;;;;;8.00;99.90;;;;;;5020976;28;20402;-68
2022/11/22 13:20:09;;;;;;;;;;;8.00;99.90;;;;;;5019204;28;19932;-69
2022/11/22 13:22:44;;;;;;;;;;;7.90;99.90;;;;;;5028904;28;19928;-70
2022/11/22 13:25:13;;;;;;;;;;;8.00;99.90;;;;;;5026466;28;19975;-68
2022/11/22 13:27:43;;;;;;;;;;;7.90;99.90;;;;;;5023188;28;19921;-68
2022/11/22 13:30:22;;;;;;;;;;;7.90;99.90;;;;;;5027172;28;19982;-68
2022/11/22 13:32:49;;;;;;;;;;;7.80;99.90;;;;;;5029838;28;19922;-68
2022/11/22 13:35:14;;;;;;;;;;;7.90;99.90;;;;;;5024059;28;19966;-67
2022/11/22 13:37:41;;;;;;;;;;;7.80;99.90;;;;;;5042567;28;20019;-68
2022/11/22 13:40:27;;;;;;;;;;;7.80;99.90;;;;;;5065937;28;19924;-68
2022/11/22 13:43:11;;;;;;;;;;;7.80;99.90;;;;;;5056967;28;19965;-68
2022/11/22 13:45:46;;;;;;;;;;;7.70;99.90;;;;;;5067697;28;19947;-68
2022/11/22 13:48:11;;;;;;;;;;;7.70;99.90;;;;;;5067483;28;19973;-68
2022/11/22 13:50:40;;;;;;;;;;;7.70;99.90;;;;;;5070169;28;19921;-67
2022/11/22 13:53:18;;;;;;;;;;;7.60;99.90;;;;;;5069969;28;19920;-69
2022/11/22 13:55:44;;;;;;;;;;;7.60;99.90;;;;;;5067775;28;19925;-68
2022/11/22 13:58:24;;;;;;;;;;;7.60;99.90;;;;;;5070168;28;19990;-68
2022/11/22 14:00:51;;;;;;;;;;;7.50;99.90;;;;;;5069255;28;19928;-68
2022/11/22 14:03:22;;;;;;;;;;;7.50;99.90;;;;;;5068685;28;19981;-69
2022/11/22 14:05:49;;;;;;;;;;;7.50;99.90;;;;;;5068671;28;19973;-69
2022/11/22 14:08:32;;;;;;;;;;;7.50;99.90;;;;;;5067417;28;19975;-68
2022/11/22 14:11:00;;;;;;;;;;;7.50;99.90;;;;;;5069561;28;19924;-69
2022/11/22 14:13:40;;;;;;;;;;;7.40;99.90;;;;;;5066797;28;20433;-68
2022/11/22 14:16:11;;;;;;;;;;;7.40;99.90;;;;;;5066177;28;20294;-68
2022/11/22 14:18:36;;;;;;;;;;;7.40;99.90;;;;;;5063500;28;19982;-69
2022/11/22 14:21:14;;;;;;;;;;;7.40;99.90;;;;;;5063616;28;19924;-69
2022/11/22 14:23:58;;;;;;;;;;;7.30;99.90;;;;;;5058698;28;19920;-69
2022/11/22 14:26:32;;;;;;;;;;;7.30;99.90;;;;;;5056843;28;19956;-68
2022/11/22 14:29:12;;;;;;;;;;;7.20;99.90;;;;;;5061251;28;19928;-68
2022/11/22 14:31:38;;;;;;;;;;;7.20;99.90;;;;;;5057357;28;19974;-68
2022/11/22 14:34:18;;;;;;;;;;;7.20;99.90;;;;;;5064370;28;19960;-69
2022/11/22 14:36:44;;;;;;;;;;;7.20;99.90;;;;;;5061849;28;19924;-69
2022/11/22 14:39:28;;;;;;;;;;;7.20;99.90;;;;;;5063157;28;19935;-69
2022/11/22 14:41:54;;;;;;;;;;;7.10;99.90;;;;;;5066940;28;20365;-68
2022/11/22 14:44:21;;;;;;;;;;;7.10;99.90;;;;;;5069036;28;19932;-68
2022/11/22 14:46:55;;;;;;;;;;;7.10;99.90;;;;;;5069719;28;19920;-69
2022/11/22 14:49:34;;;;;;;;;;;7.10;99.90;;;;;;5062692;28;20428;-69
2022/11/22 14:52:00;;;;;;;;;;;7.10;99.90;;;;;;5065546;28;19955;-68
2022/11/22 14:54:27;;;;;;;;;;;7.00;99.90;;;;;;5058182;28;19921;-68